sensor_id;sensor_type;location;lat;lon;timestamp;temperature;humidity
463;DHT22;218;51.902;9.542;2022-12-18T00:09:44;-5.10;1.00
463;DHT22;218;51.902;9.542;2022-12-18T00:14:39;-5.20;1.00
463;DHT22;218;51.902;9.542;2022-12-18T00:19:33;-5.30;1.00
463;DHT22;218;51.902;9.542;2022-12-18T00:22:00;-5.30;1.00
463;DHT22;218;51.902;9.542;2022-12-18T00:24:27;-5.30;1.00
463;DHT22;218;51.902;9.542;2022-12-18T00:26:55;-5.30;1.00
463;DHT22;218;51.902;9.542;2022-12-18T00:29:22;-5.30;1.00
463;DHT22;218;51.902;9.542;2022-12-18T00:36:43;-5.50;1.00
463;DHT22;218;51.902;9.542;2022-12-18T00:41:38;-5.50;1.00
463;DHT22;218;51.902;9.542;2022-12-18T00:44:24;-5.60;1.00
463;DHT22;218;51.902;9.542;2022-12-18T00:49:19;-5.60;1.00
463;DHT22;218;51.902;9.542;2022-12-18T00:51:47;-5.60;1.00
463;DHT22;218;51.902;9.542;2022-12-18T00:54:15;-5.60;1.00
463;DHT22;218;51.902;9.542;2022-12-18T00:56:42;-5.60;1.00
463;DHT22;218;51.902;9.542;2022-12-18T01:01:37;-5.50;1.00
463;DHT22;218;51.902;9.542;2022-12-18T01:04:05;-5.50;1.00
463;DHT22;218;51.902;9.542;2022-12-18T01:08:59;-5.50;1.00
463;DHT22;218;51.902;9.542;2022-12-18T01:13:53;-5.60;1.00
463;DHT22;218;51.902;9.542;2022-12-18T01:18:51;-5.60;1.00
463;DHT22;218;51.902;9.542;2022-12-18T01:26:15;-5.60;1.00
463;DHT22;218;51.902;9.542;2022-12-18T01:33:38;-5.60;1.00
463;DHT22;218;51.902;9.542;2022-12-18T01:43:48;-5.70;1.00
463;DHT22;218;51.902;9.542;2022-12-18T01:48:44;-5.70;1.00
463;DHT22;218;51.902;9.542;2022-12-18T01:51:13;-6.30;1.00
463;DHT22;218;51.902;9.542;2022-12-18T01:58:41;-5.80;1.00
463;DHT22;218;51.902;9.542;2022-12-18T02:03:37;-5.80;1.00
463;DHT22;218;51.902;9.542;2022-12-18T02:06:10;-5.80;1.00
463;DHT22;218;51.902;9.542;2022-12-18T02:13:46;-5.90;1.00
463;DHT22;218;51.902;9.542;2022-12-18T02:16:19;-5.90;1.00
463;DHT22;218;51.902;9.542;2022-12-18T02:18:52;-5.90;1.00
463;DHT22;218;51.902;9.542;2022-12-18T02:21:27;-6.00;1.00
463;DHT22;218;51.902;9.542;2022-12-18T02:24:08;-5.90;1.00
463;DHT22;218;51.902;9.542;2022-12-18T02:26:43;-6.00;1.00
463;DHT22;218;51.902;9.542;2022-12-18T02:29:13;-6.00;1.00
463;DHT22;218;51.902;9.542;2022-12-18T02:31:44;-5.90;1.00
463;DHT22;218;51.902;9.542;2022-12-18T02:36:41;-6.00;1.00
463;DHT22;218;51.902;9.542;2022-12-18T02:39:11;-6.00;1.00
463;DHT22;218;51.902;9.542;2022-12-18T02:41:40;-6.00;1.00
463;DHT22;218;51.902;9.542;2022-12-18T02:44:09;-6.00;1.00
463;DHT22;218;51.902;9.542;2022-12-18T02:49:12;-6.00;1.00
463;DHT22;218;51.902;9.542;2022-12-18T02:51:50;-6.00;1.00
463;DHT22;218;51.902;9.542;2022-12-18T02:54:41;-6.00;1.00
463;DHT22;218;51.902;9.542;2022-12-18T02:59:53;-6.00;1.00
463;DHT22;218;51.902;9.542;2022-12-18T03:07:33;-6.10;1.00
463;DHT22;218;51.902;9.542;2022-12-18T03:12:32;-6.20;1.00
463;DHT22;218;51.902;9.542;2022-12-18T03:15:03;-6.20;1.00
463;DHT22;218;51.902;9.542;2022-12-18T03:20:04;-6.20;1.00
463;DHT22;218;51.902;9.542;2022-12-18T03:22:33;-6.30;1.00
463;DHT22;218;51.902;9.542;2022-12-18T03:27:32;-6.30;1.00
463;DHT22;218;51.902;9.542;2022-12-18T03:30:03;-6.30;1.00
463;DHT22;218;51.902;9.542;2022-12-18T03:32:37;-6.30;1.00
463;DHT22;218;51.902;9.542;2022-12-18T03:35:07;-6.30;1.00
463;DHT22;218;51.902;9.542;2022-12-18T03:47:33;-6.40;1.00
463;DHT22;218;51.902;9.542;2022-12-18T03:50:07;-6.40;1.00
463;DHT22;218;51.902;9.542;2022-12-18T03:52:39;-6.40;1.00
463;DHT22;218;51.902;9.542;2022-12-18T03:57:38;-6.40;1.00
463;DHT22;218;51.902;9.542;2022-12-18T04:00:08;-6.40;1.00
463;DHT22;218;51.902;9.542;2022-12-18T04:05:07;-6.40;1.00
463;DHT22;218;51.902;9.542;2022-12-18T04:14:59;-6.40;1.00
463;DHT22;218;51.902;9.542;2022-12-18T04:24:47;-6.40;1.00
463;DHT22;218;51.902;9.542;2022-12-18T04:29:41;-6.40;1.00
463;DHT22;218;51.902;9.542;2022-12-18T04:32:09;-6.50;1.00
463;DHT22;218;51.902;9.542;2022-12-18T04:41:58;-6.50;1.00
463;DHT22;218;51.902;9.542;2022-12-18T04:49:23;-6.50;1.00
463;DHT22;218;51.902;9.542;2022-12-18T04:59:13;-6.40;1.00
463;DHT22;218;51.902;9.542;2022-12-18T05:04:07;-6.40;1.00
463;DHT22;218;51.902;9.542;2022-12-18T05:23:47;-6.50;1.00
463;DHT22;218;51.902;9.542;2022-12-18T05:28:43;-6.50;1.00
463;DHT22;218;51.902;9.542;2022-12-18T05:36:07;-6.50;1.00
463;DHT22;218;51.902;9.542;2022-12-18T05:41:05;-6.40;1.00
463;DHT22;218;51.902;9.542;2022-12-18T05:43:34;-6.50;1.00
463;DHT22;218;51.902;9.542;2022-12-18T05:46:04;-6.40;1.00
463;DHT22;218;51.902;9.542;2022-12-18T05:58:28;-6.40;1.00
463;DHT22;218;51.902;9.542;2022-12-18T06:03:22;-6.40;1.00
463;DHT22;218;51.902;9.542;2022-12-18T06:08:16;-6.30;1.00
463;DHT22;218;51.902;9.542;2022-12-18T06:13:17;-6.30;1.00
463;DHT22;218;51.902;9.542;2022-12-18T06:15:45;-6.30;1.00
463;DHT22;218;51.902;9.542;2022-12-18T06:20:39;-6.30;1.00
463;DHT22;218;51.902;9.542;2022-12-18T06:23:07;-6.30;1.00
463;DHT22;218;51.902;9.542;2022-12-18T06:25:38;-6.30;1.00
463;DHT22;218;51.902;9.542;2022-12-18T06:37:55;-6.20;1.00
463;DHT22;218;51.902;9.542;2022-12-18T06:42:49;-6.20;1.00
463;DHT22;218;51.902;9.542;2022-12-18T06:45:16;-6.20;1.00
463;DHT22;218;51.902;9.542;2022-12-18T06:50:12;-6.10;1.00
463;DHT22;218;51.902;9.542;2022-12-18T06:55:07;-6.10;1.00
463;DHT22;218;51.902;9.542;2022-12-18T06:57:37;-6.10;1.00
463;DHT22;218;51.902;9.542;2022-12-18T07:00:05;-6.10;1.00
463;DHT22;218;51.902;9.542;2022-12-18T07:07:29;-6.00;1.00
463;DHT22;218;51.902;9.542;2022-12-18T07:09:55;-6.00;1.00
463;DHT22;218;51.902;9.542;2022-12-18T07:12:23;-6.00;1.00
463;DHT22;218;51.902;9.542;2022-12-18T07:17:18;-5.90;1.00
463;DHT22;218;51.902;9.542;2022-12-18T07:24:40;-5.90;1.00
463;DHT22;218;51.902;9.542;2022-12-18T07:29:34;-5.90;1.00
463;DHT22;218;51.902;9.542;2022-12-18T07:39:25;-5.90;1.00
463;DHT22;218;51.902;9.542;2022-12-18T07:41:53;-5.90;1.00
463;DHT22;218;51.902;9.542;2022-12-18T07:51:56;-5.70;1.00
463;DHT22;218;51.902;9.542;2022-12-18T07:56:53;-5.70;1.00
463;DHT22;218;51.902;9.542;2022-12-18T07:59:19;-5.70;1.00
463;DHT22;218;51.902;9.542;2022-12-18T08:09:10;-5.50;1.00
463;DHT22;218;51.902;9.542;2022-12-18T08:14:05;-5.50;1.00
463;DHT22;218;51.902;9.542;2022-12-18T08:16:32;-5.50;1.00
463;DHT22;218;51.902;9.542;2022-12-18T08:21:27;-5.30;1.00
463;DHT22;218;51.902;9.542;2022-12-18T08:23:56;-5.30;1.00
463;DHT22;218;51.902;9.542;2022-12-18T08:26:24;-5.20;1.00
463;DHT22;218;51.902;9.542;2022-12-18T08:28:51;-5.20;1.00
463;DHT22;218;51.902;9.542;2022-12-18T08:31:19;-5.10;1.00
463;DHT22;218;51.902;9.542;2022-12-18T08:33:48;-5.10;1.00
463;DHT22;218;51.902;9.542;2022-12-18T08:36:16;-5.00;1.00
463;DHT22;218;51.902;9.542;2022-12-18T08:38:43;-5.00;1.00
463;DHT22;218;51.902;9.542;2022-12-18T08:41:12;-4.90;1.00
463;DHT22;218;51.902;9.542;2022-12-18T08:43:40;-4.90;1.00
463;DHT22;218;51.902;9.542;2022-12-18T08:46:27;-4.80;1.00
463;DHT22;218;51.902;9.542;2022-12-18T08:48:54;-4.80;1.00
463;DHT22;218;51.902;9.542;2022-12-18T08:51:22;-4.70;1.00
463;DHT22;218;51.902;9.542;2022-12-18T08:56:16;-4.60;1.00
463;DHT22;218;51.902;9.542;2022-12-18T09:01:11;-4.50;1.00
463;DHT22;218;51.902;9.542;2022-12-18T09:03:40;-4.30;1.00
463;DHT22;218;51.902;9.542;2022-12-18T09:06:07;-4.20;1.00
463;DHT22;218;51.902;9.542;2022-12-18T09:08:34;-4.00;1.00
463;DHT22;218;51.902;9.542;2022-12-18T09:11:02;-3.90;1.00
463;DHT22;218;51.902;9.542;2022-12-18T09:13:29;-3.70;1.00
463;DHT22;218;51.902;9.542;2022-12-18T09:15:56;-3.60;1.00
463;DHT22;218;51.902;9.542;2022-12-18T09:18:23;-3.50;1.00
463;DHT22;218;51.902;9.542;2022-12-18T09:20:52;-3.30;1.00
463;DHT22;218;51.902;9.542;2022-12-18T09:23:19;-3.20;1.00
463;DHT22;218;51.902;9.542;2022-12-18T09:25:47;-3.20;1.00
463;DHT22;218;51.902;9.542;2022-12-18T09:28:17;-2.20;1.00
463;DHT22;218;51.902;9.542;2022-12-18T09:30:45;-3.00;1.00
463;DHT22;218;51.902;9.542;2022-12-18T09:33:12;-2.90;1.00
463;DHT22;218;51.902;9.542;2022-12-18T09:35:40;-1.90;1.00
463;DHT22;218;51.902;9.542;2022-12-18T09:38:12;-2.70;1.00
463;DHT22;218;51.902;9.542;2022-12-18T09:40:42;-1.40;1.00
463;DHT22;218;51.902;9.542;2022-12-18T09:43:15;-1.70;1.00
463;DHT22;218;51.902;9.542;2022-12-18T09:45:46;-2.40;1.00
463;DHT22;218;51.902;9.542;2022-12-18T09:48:17;-2.20;1.00
463;DHT22;218;51.902;9.542;2022-12-18T09:50:46;-2.10;1.00
463;DHT22;218;51.902;9.542;2022-12-18T09:53:18;-1.90;1.00
463;DHT22;218;51.902;9.542;2022-12-18T09:55:46;-1.50;1.00
463;DHT22;218;51.902;9.542;2022-12-18T09:58:19;-1.60;1.00
463;DHT22;218;51.902;9.542;2022-12-18T10:00:47;-1.50;1.00
463;DHT22;218;51.902;9.542;2022-12-18T10:03:15;-1.30;1.00
463;DHT22;218;51.902;9.542;2022-12-18T10:05:48;-0.10;1.00
463;DHT22;218;51.902;9.542;2022-12-18T10:08:24;-1.10;1.00
463;DHT22;218;51.902;9.542;2022-12-18T10:10:53;-1.00;1.00
463;DHT22;218;51.902;9.542;2022-12-18T10:13:30;-0.90;1.00
463;DHT22;218;51.902;9.542;2022-12-18T10:16:09;-0.80;1.00
463;DHT22;218;51.902;9.542;2022-12-18T10:18:55;-0.70;1.00
463;DHT22;218;51.902;9.542;2022-12-18T10:21:31;-0.60;1.00
463;DHT22;218;51.902;9.542;2022-12-18T10:24:08;1.60;1.00
463;DHT22;218;51.902;9.542;2022-12-18T10:26:39;-0.50;1.00
463;DHT22;218;51.902;9.542;2022-12-18T10:29:09;-0.40;1.00
463;DHT22;218;51.902;9.542;2022-12-18T10:31:37;-0.40;1.00
463;DHT22;218;51.902;9.542;2022-12-18T10:34:08;0.40;1.00
463;DHT22;218;51.902;9.542;2022-12-18T10:36:35;-0.30;1.00
463;DHT22;218;51.902;9.542;2022-12-18T10:39:15;-0.20;1.00
463;DHT22;218;51.902;9.542;2022-12-18T10:41:42;-0.20;1.00
463;DHT22;218;51.902;9.542;2022-12-18T10:44:14;-0.10;1.00
463;DHT22;218;51.902;9.542;2022-12-18T10:46:42;0.00;1.00
463;DHT22;218;51.902;9.542;2022-12-18T10:49:19;0.10;1.00
463;DHT22;218;51.902;9.542;2022-12-18T10:51:48;0.10;1.00
463;DHT22;218;51.902;9.542;2022-12-18T10:54:18;0.20;1.00
463;DHT22;218;51.902;9.542;2022-12-18T10:56:46;0.30;1.00
463;DHT22;218;51.902;9.542;2022-12-18T10:59:15;1.00;1.00
463;DHT22;218;51.902;9.542;2022-12-18T11:01:50;0.50;1.00
463;DHT22;218;51.902;9.542;2022-12-18T11:04:19;0.60;1.00
463;DHT22;218;51.902;9.542;2022-12-18T11:06:58;0.70;1.00
463;DHT22;218;51.902;9.542;2022-12-18T11:09:28;0.80;1.00
463;DHT22;218;51.902;9.542;2022-12-18T11:11:57;0.90;1.00
463;DHT22;218;51.902;9.542;2022-12-18T11:14:28;1.00;1.00
463;DHT22;218;51.902;9.542;2022-12-18T11:16:57;1.10;1.00
463;DHT22;218;51.902;9.542;2022-12-18T11:19:31;1.60;1.00
463;DHT22;218;51.902;9.542;2022-12-18T11:21:58;1.30;1.00
463;DHT22;218;51.902;9.542;2022-12-18T11:24:30;1.40;1.00
463;DHT22;218;51.902;9.542;2022-12-18T11:27:00;1.50;1.00
463;DHT22;218;51.902;9.542;2022-12-18T11:29:32;1.50;1.00
463;DHT22;218;51.902;9.542;2022-12-18T11:32:31;1.70;1.00
463;DHT22;218;51.902;9.542;2022-12-18T11:35:14;1.80;1.00
463;DHT22;218;51.902;9.542;2022-12-18T11:37:47;1.90;1.00
463;DHT22;218;51.902;9.542;2022-12-18T11:40:19;2.00;1.00
463;DHT22;218;51.902;9.542;2022-12-18T11:42:51;2.10;1.00
463;DHT22;218;51.902;9.542;2022-12-18T11:45:27;2.20;1.00
463;DHT22;218;51.902;9.542;2022-12-18T11:47:59;2.30;1.00
463;DHT22;218;51.902;9.542;2022-12-18T11:50:32;2.30;1.00
463;DHT22;218;51.902;9.542;2022-12-18T11:53:00;2.50;1.00
463;DHT22;218;51.902;9.542;2022-12-18T11:55:36;2.40;1.00
463;DHT22;218;51.902;9.542;2022-12-18T11:58:09;2.50;1.00
463;DHT22;218;51.902;9.542;2022-12-18T12:00:46;2.50;1.00
463;DHT22;218;51.902;9.542;2022-12-18T12:03:24;2.60;1.00
463;DHT22;218;51.902;9.542;2022-12-18T12:06:01;2.80;1.00
463;DHT22;218;51.902;9.542;2022-12-18T12:08:37;2.60;1.00
463;DHT22;218;51.902;9.542;2022-12-18T12:11:12;2.60;1.00
463;DHT22;218;51.902;9.542;2022-12-18T12:14:01;4.30;1.00
463;DHT22;218;51.902;9.542;2022-12-18T12:16:34;2.60;1.00
463;DHT22;218;51.902;9.542;2022-12-18T12:19:19;2.60;1.00
463;DHT22;218;51.902;9.542;2022-12-18T12:21:53;2.70;1.00
463;DHT22;218;51.902;9.542;2022-12-18T12:24:32;2.70;1.00
463;DHT22;218;51.902;9.542;2022-12-18T12:27:09;2.70;1.00
463;DHT22;218;51.902;9.542;2022-12-18T12:29:50;2.70;1.00
463;DHT22;218;51.902;9.542;2022-12-18T12:32:29;2.70;1.00
463;DHT22;218;51.902;9.542;2022-12-18T12:35:09;2.90;1.00
463;DHT22;218;51.902;9.542;2022-12-18T12:37:49;2.70;1.00
463;DHT22;218;51.902;9.542;2022-12-18T12:40:20;2.80;1.00
463;DHT22;218;51.902;9.542;2022-12-18T12:42:54;3.40;1.00
463;DHT22;218;51.902;9.542;2022-12-18T12:45:42;2.80;1.00
463;DHT22;218;51.902;9.542;2022-12-18T12:48:19;2.80;1.00
463;DHT22;218;51.902;9.542;2022-12-18T12:50:47;2.80;1.00
463;DHT22;218;51.902;9.542;2022-12-18T12:53:22;2.80;1.00
463;DHT22;218;51.902;9.542;2022-12-18T12:55:51;2.80;1.00
463;DHT22;218;51.902;9.542;2022-12-18T12:58:28;2.80;1.00
463;DHT22;218;51.902;9.542;2022-12-18T13:01:05;2.80;1.00
463;DHT22;218;51.902;9.542;2022-12-18T13:03:43;2.80;1.00
463;DHT22;218;51.902;9.542;2022-12-18T13:06:18;2.80;1.00
463;DHT22;218;51.902;9.542;2022-12-18T13:08:54;2.80;1.00
463;DHT22;218;51.902;9.542;2022-12-18T13:11:34;2.80;1.00
463;DHT22;218;51.902;9.542;2022-12-18T13:14:27;2.80;1.00
463;DHT22;218;51.902;9.542;2022-12-18T13:17:14;2.70;1.00
463;DHT22;218;51.902;9.542;2022-12-18T13:19:41;2.70;1.00
463;DHT22;218;51.902;9.542;2022-12-18T13:22:21;2.70;1.00
463;DHT22;218;51.902;9.542;2022-12-18T13:24:48;3.80;1.00
463;DHT22;218;51.902;9.542;2022-12-18T13:27:46;2.70;1.00
463;DHT22;218;51.902;9.542;2022-12-18T13:30:44;2.70;1.00
463;DHT22;218;51.902;9.542;2022-12-18T13:33:41;2.70;1.00
463;DHT22;218;51.902;9.542;2022-12-18T13:36:13;2.70;1.00
463;DHT22;218;51.902;9.542;2022-12-18T13:38:41;2.70;1.00
463;DHT22;218;51.902;9.542;2022-12-18T13:41:22;2.70;1.00
463;DHT22;218;51.902;9.542;2022-12-18T13:43:52;2.70;1.00
463;DHT22;218;51.902;9.542;2022-12-18T13:46:23;2.70;1.00
463;DHT22;218;51.902;9.542;2022-12-18T13:49:02;2.70;1.00
463;DHT22;218;51.902;9.542;2022-12-18T13:51:32;2.70;1.00
463;DHT22;218;51.902;9.542;2022-12-18T13:54:00;2.70;1.00
463;DHT22;218;51.902;9.542;2022-12-18T13:56:29;2.70;1.00
463;DHT22;218;51.902;9.542;2022-12-18T13:59:10;2.70;1.00
463;DHT22;218;51.902;9.542;2022-12-18T14:01:47;2.70;1.00
463;DHT22;218;51.902;9.542;2022-12-18T14:04:22;2.60;1.00
463;DHT22;218;51.902;9.542;2022-12-18T14:06:52;2.60;1.00
463;DHT22;218;51.902;9.542;2022-12-18T14:09:25;2.60;1.00
463;DHT22;218;51.902;9.542;2022-12-18T14:11:52;2.60;1.00
463;DHT22;218;51.902;9.542;2022-12-18T14:14:42;2.60;1.00
463;DHT22;218;51.902;9.542;2022-12-18T14:17:12;2.60;1.00
463;DHT22;218;51.902;9.542;2022-12-18T14:19:42;2.60;1.00
463;DHT22;218;51.902;9.542;2022-12-18T14:22:18;2.60;1.00
463;DHT22;218;51.902;9.542;2022-12-18T14:24:46;2.60;1.00
463;DHT22;218;51.902;9.542;2022-12-18T14:27:21;2.60;1.00
463;DHT22;218;51.902;9.542;2022-12-18T14:29:49;2.60;1.00
463;DHT22;218;51.902;9.542;2022-12-18T14:32:19;2.60;1.00
463;DHT22;218;51.902;9.542;2022-12-18T14:34:47;2.60;1.00
463;DHT22;218;51.902;9.542;2022-12-18T14:37:16;2.60;1.00
463;DHT22;218;51.902;9.542;2022-12-18T14:39:57;2.60;1.00
463;DHT22;218;51.902;9.542;2022-12-18T14:42:30;2.60;1.00
463;DHT22;218;51.902;9.542;2022-12-18T14:45:32;2.60;1.00
463;DHT22;218;51.902;9.542;2022-12-18T14:48:00;2.60;1.00
463;DHT22;218;51.902;9.542;2022-12-18T14:50:34;2.60;1.00
463;DHT22;218;51.902;9.542;2022-12-18T14:53:02;3.10;1.00
463;DHT22;218;51.902;9.542;2022-12-18T14:55:29;2.50;1.00
463;DHT22;218;51.902;9.542;2022-12-18T14:57:56;2.60;1.00
463;DHT22;218;51.902;9.542;2022-12-18T15:00:25;2.50;1.00
463;DHT22;218;51.902;9.542;2022-12-18T15:02:54;2.50;1.00
463;DHT22;218;51.902;9.542;2022-12-18T15:05:26;3.10;1.00
463;DHT22;218;51.902;9.542;2022-12-18T15:07:55;2.60;1.00
463;DHT22;218;51.902;9.542;2022-12-18T15:10:24;2.50;1.00
463;DHT22;218;51.902;9.542;2022-12-18T15:13:07;2.60;1.00
463;DHT22;218;51.902;9.542;2022-12-18T15:16:00;2.50;1.00
463;DHT22;218;51.902;9.542;2022-12-18T15:18:31;2.50;1.00
463;DHT22;218;51.902;9.542;2022-12-18T15:21:08;3.80;1.00
463;DHT22;218;51.902;9.542;2022-12-18T15:23:37;2.50;1.00
463;DHT22;218;51.902;9.542;2022-12-18T15:26:06;2.50;1.00
463;DHT22;218;51.902;9.542;2022-12-18T15:28:36;2.60;1.00
463;DHT22;218;51.902;9.542;2022-12-18T15:31:06;2.50;1.00
463;DHT22;218;51.902;9.542;2022-12-18T15:34:02;2.50;1.00
463;DHT22;218;51.902;9.542;2022-12-18T15:36:33;3.00;1.00
463;DHT22;218;51.902;9.542;2022-12-18T15:39:02;2.70;1.00
463;DHT22;218;51.902;9.542;2022-12-18T15:41:31;2.80;1.00
463;DHT22;218;51.902;9.542;2022-12-18T15:43:58;2.70;1.00
463;DHT22;218;51.902;9.542;2022-12-18T15:46:25;2.50;1.00
463;DHT22;218;51.902;9.542;2022-12-18T15:48:53;2.50;1.00
463;DHT22;218;51.902;9.542;2022-12-18T15:51:23;2.50;1.00
463;DHT22;218;51.902;9.542;2022-12-18T15:53:54;2.50;1.00
463;DHT22;218;51.902;9.542;2022-12-18T15:56:22;2.50;1.00
463;DHT22;218;51.902;9.542;2022-12-18T15:59:10;3.20;1.00
463;DHT22;218;51.902;9.542;2022-12-18T16:01:38;2.50;1.00
463;DHT22;218;51.902;9.542;2022-12-18T16:04:05;2.50;1.00
463;DHT22;218;51.902;9.542;2022-12-18T16:06:32;3.20;1.00
463;DHT22;218;51.902;9.542;2022-12-18T16:09:00;2.50;1.00
463;DHT22;218;51.902;9.542;2022-12-18T16:11:29;2.50;1.00
463;DHT22;218;51.902;9.542;2022-12-18T16:14:12;2.80;1.00
463;DHT22;218;51.902;9.542;2022-12-18T16:16:42;2.50;1.00
463;DHT22;218;51.902;9.542;2022-12-18T16:19:09;2.50;1.00
463;DHT22;218;51.902;9.542;2022-12-18T16:21:36;3.30;1.00
463;DHT22;218;51.902;9.542;2022-12-18T16:24:04;2.00;1.00
463;DHT22;218;51.902;9.542;2022-12-18T16:26:31;2.60;1.00
463;DHT22;218;51.902;9.542;2022-12-18T16:28:58;2.60;1.00
463;DHT22;218;51.902;9.542;2022-12-18T16:31:25;2.60;1.00
463;DHT22;218;51.902;9.542;2022-12-18T16:34:10;2.60;1.00
463;DHT22;218;51.902;9.542;2022-12-18T16:36:37;2.60;1.00
463;DHT22;218;51.902;9.542;2022-12-18T16:39:05;2.60;1.00
463;DHT22;218;51.902;9.542;2022-12-18T16:41:32;2.60;1.00
463;DHT22;218;51.902;9.542;2022-12-18T16:43:59;2.60;1.00
463;DHT22;218;51.902;9.542;2022-12-18T16:46:26;2.60;1.00
463;DHT22;218;51.902;9.542;2022-12-18T16:48:53;2.60;1.00
463;DHT22;218;51.902;9.542;2022-12-18T16:51:20;2.60;1.00
463;DHT22;218;51.902;9.542;2022-12-18T16:53:47;2.60;1.00
463;DHT22;218;51.902;9.542;2022-12-18T16:56:15;0.50;1.00
463;DHT22;218;51.902;9.542;2022-12-18T16:58:51;2.60;1.00
463;DHT22;218;51.902;9.542;2022-12-18T17:01:19;2.60;1.00
463;DHT22;218;51.902;9.542;2022-12-18T17:03:51;2.60;1.00
463;DHT22;218;51.902;9.542;2022-12-18T17:06:19;2.60;1.00
463;DHT22;218;51.902;9.542;2022-12-18T17:08:46;2.60;1.00
463;DHT22;218;51.902;9.542;2022-12-18T17:11:15;3.10;1.00
463;DHT22;218;51.902;9.542;2022-12-18T17:13:42;2.60;1.00
463;DHT22;218;51.902;9.542;2022-12-18T17:16:09;2.60;1.00
463;DHT22;218;51.902;9.542;2022-12-18T17:18:36;2.70;1.00
463;DHT22;218;51.902;9.542;2022-12-18T17:21:05;3.20;1.00
463;DHT22;218;51.902;9.542;2022-12-18T17:23:34;2.70;1.00
463;DHT22;218;51.902;9.542;2022-12-18T17:26:02;2.70;1.00
463;DHT22;218;51.902;9.542;2022-12-18T17:28:33;4.00;1.00
463;DHT22;218;51.902;9.542;2022-12-18T17:31:00;3.20;1.00
463;DHT22;218;51.902;9.542;2022-12-18T17:33:27;2.70;1.00
463;DHT22;218;51.902;9.542;2022-12-18T17:35:57;2.70;1.00
463;DHT22;218;51.902;9.542;2022-12-18T17:38:24;3.20;1.00
463;DHT22;218;51.902;9.542;2022-12-18T17:40:52;2.70;1.00
463;DHT22;218;51.902;9.542;2022-12-18T17:43:19;2.70;1.00
463;DHT22;218;51.902;9.542;2022-12-18T17:45:47;2.70;1.00
463;DHT22;218;51.902;9.542;2022-12-18T17:48:14;2.70;1.00
463;DHT22;218;51.902;9.542;2022-12-18T17:50:41;3.10;1.00
463;DHT22;218;51.902;9.542;2022-12-18T17:53:08;2.70;1.00
463;DHT22;218;51.902;9.542;2022-12-18T17:55:35;2.70;1.00
463;DHT22;218;51.902;9.542;2022-12-18T17:58:02;2.70;1.00
463;DHT22;218;51.902;9.542;2022-12-18T18:00:29;2.70;1.00
463;DHT22;218;51.902;9.542;2022-12-18T18:02:59;2.70;1.00
463;DHT22;218;51.902;9.542;2022-12-18T18:05:26;2.70;1.00
463;DHT22;218;51.902;9.542;2022-12-18T18:07:53;2.70;1.00
463;DHT22;218;51.902;9.542;2022-12-18T18:10:20;2.80;1.00
463;DHT22;218;51.902;9.542;2022-12-18T18:12:47;2.80;1.00
463;DHT22;218;51.902;9.542;2022-12-18T18:15:31;2.80;1.00
463;DHT22;218;51.902;9.542;2022-12-18T18:18:01;2.90;1.00
463;DHT22;218;51.902;9.542;2022-12-18T18:20:27;3.50;1.00
463;DHT22;218;51.902;9.542;2022-12-18T18:22:55;2.80;1.00
463;DHT22;218;51.902;9.542;2022-12-18T18:25:22;2.80;1.00
463;DHT22;218;51.902;9.542;2022-12-18T18:27:49;2.80;1.00
463;DHT22;218;51.902;9.542;2022-12-18T18:30:16;2.90;1.00
463;DHT22;218;51.902;9.542;2022-12-18T18:32:42;2.80;1.00
463;DHT22;218;51.902;9.542;2022-12-18T18:35:11;2.80;1.00
463;DHT22;218;51.902;9.542;2022-12-18T18:37:38;2.80;1.00
463;DHT22;218;51.902;9.542;2022-12-18T18:40:05;3.90;1.00
463;DHT22;218;51.902;9.542;2022-12-18T18:42:32;2.80;1.00
463;DHT22;218;51.902;9.542;2022-12-18T18:44:59;2.80;1.00
463;DHT22;218;51.902;9.542;2022-12-18T18:47:28;2.80;1.00
463;DHT22;218;51.902;9.542;2022-12-18T18:49:55;2.80;1.00
463;DHT22;218;51.902;9.542;2022-12-18T18:52:23;2.80;1.00
463;DHT22;218;51.902;9.542;2022-12-18T18:54:52;2.80;1.00
463;DHT22;218;51.902;9.542;2022-12-18T18:57:19;3.30;1.00
463;DHT22;218;51.902;9.542;2022-12-18T18:59:46;3.50;1.00
463;DHT22;218;51.902;9.542;2022-12-18T19:02:13;2.90;1.00
463;DHT22;218;51.902;9.542;2022-12-18T19:04:41;2.90;1.00
463;DHT22;218;51.902;9.542;2022-12-18T19:07:08;3.50;1.00
463;DHT22;218;51.902;9.542;2022-12-18T19:09:36;3.80;1.00
463;DHT22;218;51.902;9.542;2022-12-18T19:12:03;2.90;1.00
463;DHT22;218;51.902;9.542;2022-12-18T19:14:47;3.00;1.00
463;DHT22;218;51.902;9.542;2022-12-18T19:17:14;3.00;1.00
463;DHT22;218;51.902;9.542;2022-12-18T19:19:44;3.40;1.00
463;DHT22;218;51.902;9.542;2022-12-18T19:22:12;3.00;1.00
463;DHT22;218;51.902;9.542;2022-12-18T19:24:41;3.00;1.00
463;DHT22;218;51.902;9.542;2022-12-18T19:27:07;3.00;1.00
463;DHT22;218;51.902;9.542;2022-12-18T19:29:34;3.00;1.00
463;DHT22;218;51.902;9.542;2022-12-18T19:32:01;3.00;1.00
463;DHT22;218;51.902;9.542;2022-12-18T19:34:29;3.10;1.00
463;DHT22;218;51.902;9.542;2022-12-18T19:36:56;4.10;1.00
463;DHT22;218;51.902;9.542;2022-12-18T19:39:23;3.10;1.00
463;DHT22;218;51.902;9.542;2022-12-18T19:41:51;3.80;1.00
463;DHT22;218;51.902;9.542;2022-12-18T19:44:19;3.10;1.00
463;DHT22;218;51.902;9.542;2022-12-18T19:46:49;3.10;1.00
463;DHT22;218;51.902;9.542;2022-12-18T19:49:16;3.50;1.00
463;DHT22;218;51.902;9.542;2022-12-18T19:51:50;3.10;1.00
463;DHT22;218;51.902;9.542;2022-12-18T19:54:17;4.30;1.00
463;DHT22;218;51.902;9.542;2022-12-18T19:56:44;3.10;1.00
463;DHT22;218;51.902;9.542;2022-12-18T19:59:13;3.10;1.00
463;DHT22;218;51.902;9.542;2022-12-18T20:01:40;3.10;1.00
463;DHT22;218;51.902;9.542;2022-12-18T20:04:07;3.30;1.00
463;DHT22;218;51.902;9.542;2022-12-18T20:06:35;3.00;1.00
463;DHT22;218;51.902;9.542;2022-12-18T20:09:04;3.10;1.00
463;DHT22;218;51.902;9.542;2022-12-18T20:11:34;3.10;1.00
463;DHT22;218;51.902;9.542;2022-12-18T20:14:03;3.10;1.00
463;DHT22;218;51.902;9.542;2022-12-18T20:16:33;3.10;1.00
463;DHT22;218;51.902;9.542;2022-12-18T20:19:00;3.10;1.00
463;DHT22;218;51.902;9.542;2022-12-18T20:21:27;3.10;1.00
463;DHT22;218;51.902;9.542;2022-12-18T20:23:54;3.20;1.00
463;DHT22;218;51.902;9.542;2022-12-18T20:26:21;3.40;1.00
463;DHT22;218;51.902;9.542;2022-12-18T20:28:49;3.80;1.00
463;DHT22;218;51.902;9.542;2022-12-18T20:31:16;3.20;1.00
463;DHT22;218;51.902;9.542;2022-12-18T20:33:44;3.20;1.00
463;DHT22;218;51.902;9.542;2022-12-18T20:36:13;3.20;1.00
463;DHT22;218;51.902;9.542;2022-12-18T20:38:40;3.90;1.00
463;DHT22;218;51.902;9.542;2022-12-18T20:41:08;3.80;1.00
463;DHT22;218;51.902;9.542;2022-12-18T20:43:36;3.30;1.00
463;DHT22;218;51.902;9.542;2022-12-18T20:46:05;3.30;1.00
463;DHT22;218;51.902;9.542;2022-12-18T20:48:36;3.30;1.00
463;DHT22;218;51.902;9.542;2022-12-18T20:51:08;3.30;1.00
463;DHT22;218;51.902;9.542;2022-12-18T20:53:36;3.30;1.00
463;DHT22;218;51.902;9.542;2022-12-18T20:56:05;3.30;1.00
463;DHT22;218;51.902;9.542;2022-12-18T20:58:33;3.20;1.00
463;DHT22;218;51.902;9.542;2022-12-18T21:01:05;3.20;1.00
463;DHT22;218;51.902;9.542;2022-12-18T21:03:35;3.30;1.00
463;DHT22;218;51.902;9.542;2022-12-18T21:06:02;3.30;1.00
463;DHT22;218;51.902;9.542;2022-12-18T21:08:31;3.20;1.00
463;DHT22;218;51.902;9.542;2022-12-18T21:11:12;3.20;1.00
463;DHT22;218;51.902;9.542;2022-12-18T21:14:00;3.90;1.00
463;DHT22;218;51.902;9.542;2022-12-18T21:16:27;3.40;1.00
463;DHT22;218;51.902;9.542;2022-12-18T21:18:54;3.20;1.00
463;DHT22;218;51.902;9.542;2022-12-18T21:21:21;3.20;1.00
463;DHT22;218;51.902;9.542;2022-12-18T21:23:49;3.20;1.00
463;DHT22;218;51.902;9.542;2022-12-18T21:26:17;4.80;1.00
463;DHT22;218;51.902;9.542;2022-12-18T21:28:44;3.30;1.00
463;DHT22;218;51.902;9.542;2022-12-18T21:31:11;3.90;1.00
463;DHT22;218;51.902;9.542;2022-12-18T21:33:38;3.30;1.00
463;DHT22;218;51.902;9.542;2022-12-18T21:36:06;3.30;1.00
463;DHT22;218;51.902;9.542;2022-12-18T21:38:34;3.30;1.00
463;DHT22;218;51.902;9.542;2022-12-18T21:41:06;3.30;1.00